sensor_id;sensor_type;location;lat;lon;timestamp;pressure;altitude;pressure_sealevel;temperature;humidity
78407;BME280;67692;51.074;-1.790;2023-07-20T00:00:13;101190.28;;;16.88;69.46
78407;BME280;67692;51.074;-1.790;2023-07-20T00:02:40;101189.44;;;16.88;69.83
78407;BME280;67692;51.074;-1.790;2023-07-20T00:05:07;101186.44;;;16.92;69.74
78407;BME280;67692;51.074;-1.790;2023-07-20T00:07:33;101184.75;;;16.91;69.80
78407;BME280;67692;51.074;-1.790;2023-07-20T00:10:00;101183.94;;;16.81;69.96
78407;BME280;67692;51.074;-1.790;2023-07-20T00:12:27;101191.91;;;16.80;70.14
78407;BME280;67692;51.074;-1.790;2023-07-20T00:14:53;101182.28;;;16.90;70.13
78407;BME280;67692;51.074;-1.790;2023-07-20T00:17:21;101184.22;;;16.88;69.81
78407;BME280;67692;51.074;-1.790;2023-07-20T00:19:48;101189.44;;;16.78;70.01
78407;BME280;67692;51.074;-1.790;2023-07-20T00:22:14;101180.34;;;16.82;69.74
78407;BME280;67692;51.074;-1.790;2023-07-20T00:24:41;101178.84;;;16.80;69.81
78407;BME280;67692;51.074;-1.790;2023-07-20T00:27:07;101180.88;;;16.76;70.09
78407;BME280;67692;51.074;-1.790;2023-07-20T00:29:34;101169.03;;;16.72;70.04
78407;BME280;67692;51.074;-1.790;2023-07-20T00:32:01;101182.38;;;16.69;70.23
78407;BME280;67692;51.074;-1.790;2023-07-20T00:34:31;101173.16;;;16.75;69.82
78407;BME280;67692;51.074;-1.790;2023-07-20T00:36:58;101184.94;;;16.59;70.62
78407;BME280;67692;51.074;-1.790;2023-07-20T00:39:24;101186.28;;;16.54;70.54
78407;BME280;67692;51.074;-1.790;2023-07-20T00:41:51;101183.94;;;16.51;70.99
78407;BME280;67692;51.074;-1.790;2023-07-20T00:44:17;101183.75;;;16.43;71.13
78407;BME280;67692;51.074;-1.790;2023-07-20T00:46:44;101180.88;;;16.46;70.90
78407;BME280;67692;51.074;-1.790;2023-07-20T00:49:11;101181.00;;;16.44;71.14
78407;BME280;67692;51.074;-1.790;2023-07-20T00:51:39;101178.13;;;16.47;70.84
78407;BME280;67692;51.074;-1.790;2023-07-20T00:54:07;101171.72;;;16.61;70.29
78407;BME280;67692;51.074;-1.790;2023-07-20T00:56:33;101179.06;;;16.67;69.78
78407;BME280;67692;51.074;-1.790;2023-07-20T00:59:00;101178.28;;;16.46;70.22
78407;BME280;67692;51.074;-1.790;2023-07-20T01:01:26;101172.94;;;16.57;70.34
78407;BME280;67692;51.074;-1.790;2023-07-20T01:03:53;101179.75;;;16.39;70.67
78407;BME280;67692;51.074;-1.790;2023-07-20T01:06:26;101177.09;;;16.29;70.58
78407;BME280;67692;51.074;-1.790;2023-07-20T01:09:05;101168.97;;;16.22;70.85
78407;BME280;67692;51.074;-1.790;2023-07-20T01:11:38;101161.97;;;16.32;70.78
78407;BME280;67692;51.074;-1.790;2023-07-20T01:14:11;101167.75;;;16.26;70.59
78407;BME280;67692;51.074;-1.790;2023-07-20T01:16:38;101161.69;;;16.26;70.01
78407;BME280;67692;51.074;-1.790;2023-07-20T01:19:04;101171.03;;;16.28;69.77
78407;BME280;67692;51.074;-1.790;2023-07-20T01:21:38;101167.19;;;16.23;70.21
78407;BME280;67692;51.074;-1.790;2023-07-20T01:24:43;101164.81;;;16.20;70.42
78407;BME280;67692;51.074;-1.790;2023-07-20T01:27:36;101167.13;;;16.13;70.04
78407;BME280;67692;51.074;-1.790;2023-07-20T01:30:14;101161.00;;;16.03;70.73
78407;BME280;67692;51.074;-1.790;2023-07-20T01:32:44;101161.84;;;16.03;71.13
78407;BME280;67692;51.074;-1.790;2023-07-20T01:35:14;101163.19;;;15.98;71.03
78407;BME280;67692;51.074;-1.790;2023-07-20T01:37:43;101159.00;;;15.86;71.24
78407;BME280;67692;51.074;-1.790;2023-07-20T01:40:13;101159.69;;;15.88;70.97
78407;BME280;67692;51.074;-1.790;2023-07-20T01:42:44;101159.06;;;15.74;71.58
78407;BME280;67692;51.074;-1.790;2023-07-20T01:45:11;101153.78;;;15.86;70.96
78407;BME280;67692;51.074;-1.790;2023-07-20T01:47:37;101158.28;;;15.84;70.76
78407;BME280;67692;51.074;-1.790;2023-07-20T01:50:06;101154.03;;;15.83;70.87
78407;BME280;67692;51.074;-1.790;2023-07-20T01:52:33;101154.78;;;15.73;70.50
78407;BME280;67692;51.074;-1.790;2023-07-20T01:55:00;101154.16;;;15.81;70.64
78407;BME280;67692;51.074;-1.790;2023-07-20T01:57:26;101161.31;;;15.79;70.91
78407;BME280;67692;51.074;-1.790;2023-07-20T01:59:53;101155.06;;;15.70;70.76
78407;BME280;67692;51.074;-1.790;2023-07-20T02:02:20;101152.25;;;15.62;71.05
78407;BME280;67692;51.074;-1.790;2023-07-20T02:04:46;101150.38;;;15.53;71.52
78407;BME280;67692;51.074;-1.790;2023-07-20T02:07:14;101153.81;;;15.54;71.24
78407;BME280;67692;51.074;-1.790;2023-07-20T02:09:41;101145.16;;;15.53;71.17
78407;BME280;67692;51.074;-1.790;2023-07-20T02:12:08;101150.03;;;15.46;71.14
78407;BME280;67692;51.074;-1.790;2023-07-20T02:14:35;101149.31;;;15.44;71.50
78407;BME280;67692;51.074;-1.790;2023-07-20T02:17:01;101152.44;;;15.38;71.21
78407;BME280;67692;51.074;-1.790;2023-07-20T02:19:30;101147.84;;;15.31;71.22
78407;BME280;67692;51.074;-1.790;2023-07-20T02:21:57;101148.09;;;15.28;71.59
78407;BME280;67692;51.074;-1.790;2023-07-20T02:24:25;101141.44;;;15.35;71.40
78407;BME280;67692;51.074;-1.790;2023-07-20T02:26:51;101147.38;;;15.37;70.96
78407;BME280;67692;51.074;-1.790;2023-07-20T02:29:18;101146.19;;;15.30;70.53
78407;BME280;67692;51.074;-1.790;2023-07-20T02:31:44;101140.53;;;15.25;70.83
78407;BME280;67692;51.074;-1.790;2023-07-20T02:34:11;101143.97;;;15.25;71.00
78407;BME280;67692;51.074;-1.790;2023-07-20T02:36:38;101143.22;;;15.34;70.90
78407;BME280;67692;51.074;-1.790;2023-07-20T02:39:07;101145.41;;;15.50;70.03
78407;BME280;67692;51.074;-1.790;2023-07-20T02:41:35;101145.88;;;15.44;70.62
78407;BME280;67692;51.074;-1.790;2023-07-20T02:44:02;101145.00;;;15.55;70.20
78407;BME280;67692;51.074;-1.790;2023-07-20T02:46:28;101143.03;;;15.47;70.06
78407;BME280;67692;51.074;-1.790;2023-07-20T02:48:56;101139.50;;;15.48;69.61
78407;BME280;67692;51.074;-1.790;2023-07-20T02:51:22;101146.66;;;15.35;70.10
78407;BME280;67692;51.074;-1.790;2023-07-20T02:53:49;101146.75;;;15.33;70.16
78407;BME280;67692;51.074;-1.790;2023-07-20T02:56:15;101140.69;;;15.12;70.70
78407;BME280;67692;51.074;-1.790;2023-07-20T02:58:44;101142.47;;;15.11;71.02
78407;BME280;67692;51.074;-1.790;2023-07-20T03:01:11;101139.75;;;15.02;71.19
78407;BME280;67692;51.074;-1.790;2023-07-20T03:03:38;101143.19;;;15.02;70.86
78407;BME280;67692;51.074;-1.790;2023-07-20T03:06:05;101139.88;;;15.00;71.04
78407;BME280;67692;51.074;-1.790;2023-07-20T03:08:34;101138.50;;;14.96;71.28
78407;BME280;67692;51.074;-1.790;2023-07-20T03:11:01;101144.91;;;15.24;70.56
78407;BME280;67692;51.074;-1.790;2023-07-20T03:13:28;101144.75;;;15.37;70.00
78407;BME280;67692;51.074;-1.790;2023-07-20T03:15:56;101137.09;;;15.24;70.61
78407;BME280;67692;51.074;-1.790;2023-07-20T03:18:23;101138.41;;;15.18;70.91
78407;BME280;67692;51.074;-1.790;2023-07-20T03:20:50;101145.34;;;14.97;71.33
78407;BME280;67692;51.074;-1.790;2023-07-20T03:23:16;101144.44;;;14.87;71.75
78407;BME280;67692;51.074;-1.790;2023-07-20T03:25:43;101140.72;;;15.01;70.98
78407;BME280;67692;51.074;-1.790;2023-07-20T03:28:09;101140.41;;;14.94;71.22
78407;BME280;67692;51.074;-1.790;2023-07-20T03:30:36;101143.97;;;14.93;71.29
78407;BME280;67692;51.074;-1.790;2023-07-20T03:33:04;101146.59;;;14.82;nan
78407;BME280;67692;51.074;-1.790;2023-07-20T03:35:30;101142.97;;;14.62;71.90
78407;BME280;67692;51.074;-1.790;2023-07-20T03:37:57;101146.59;;;14.59;72.22
78407;BME280;67692;51.074;-1.790;2023-07-20T03:40:24;101143.53;;;14.77;71.31
78407;BME280;67692;51.074;-1.790;2023-07-20T03:42:50;101140.59;;;15.02;70.38
78407;BME280;67692;51.074;-1.790;2023-07-20T03:45:17;101141.09;;;14.96;69.79
78407;BME280;67692;51.074;-1.790;2023-07-20T03:47:43;101139.00;;;14.90;69.87
78407;BME280;67692;51.074;-1.790;2023-07-20T03:50:11;101138.75;;;14.93;69.51
78407;BME280;67692;51.074;-1.790;2023-07-20T03:52:38;101139.69;;;14.92;69.62
78407;BME280;67692;51.074;-1.790;2023-07-20T03:55:05;101141.63;;;14.79;70.04
78407;BME280;67692;51.074;-1.790;2023-07-20T03:57:32;101137.91;;;14.93;69.74
78407;BME280;67692;51.074;-1.790;2023-07-20T03:59:59;101145.75;;;14.81;69.91
78407;BME280;67692;51.074;-1.790;2023-07-20T04:02:25;101150.97;;;14.81;69.78
78407;BME280;67692;51.074;-1.790;2023-07-20T04:04:52;101154.16;;;14.74;70.04
78407;BME280;67692;51.074;-1.790;2023-07-20T04:07:20;101152.03;;;14.79;69.68
78407;BME280;67692;51.074;-1.790;2023-07-20T04:09:46;101146.22;;;14.75;70.47
78407;BME280;67692;51.074;-1.790;2023-07-20T04:12:13;101143.03;;;14.61;70.51
78407;BME280;67692;51.074;-1.790;2023-07-20T04:14:39;101144.75;;;14.50;70.56
78407;BME280;67692;51.074;-1.790;2023-07-20T04:17:06;101149.00;;;14.51;70.79
78407;BME280;67692;51.074;-1.790;2023-07-20T04:19:32;101146.59;;;14.37;70.12
78407;BME280;67692;51.074;-1.790;2023-07-20T04:21:59;101144.47;;;14.42;70.15
78407;BME280;67692;51.074;-1.790;2023-07-20T04:24:27;101143.75;;;14.40;69.90
78407;BME280;67692;51.074;-1.790;2023-07-20T04:26:53;101145.53;;;14.40;70.93
78407;BME280;67692;51.074;-1.790;2023-07-20T04:29:20;101143.53;;;14.21;71.12
78407;BME280;67692;51.074;-1.790;2023-07-20T04:31:47;101140.44;;;14.16;71.78
78407;BME280;67692;51.074;-1.790;2023-07-20T04:34:13;101141.03;;;14.19;71.22
78407;BME280;67692;51.074;-1.790;2023-07-20T04:36:40;101145.06;;;14.12;71.66
78407;BME280;67692;51.074;-1.790;2023-07-20T04:39:06;101144.22;;;14.00;72.09
78407;BME280;67692;51.074;-1.790;2023-07-20T04:41:36;101138.44;;;14.08;71.85
78407;BME280;67692;51.074;-1.790;2023-07-20T04:44:02;101137.22;;;13.90;72.80
78407;BME280;67692;51.074;-1.790;2023-07-20T04:46:29;101133.34;;;14.07;72.29
78407;BME280;67692;51.074;-1.790;2023-07-20T04:48:56;101135.97;;;14.18;71.64
78407;BME280;67692;51.074;-1.790;2023-07-20T04:51:22;101139.50;;;14.28;71.03
78407;BME280;67692;51.074;-1.790;2023-07-20T04:53:49;101138.53;;;14.29;71.41
78407;BME280;67692;51.074;-1.790;2023-07-20T04:56:15;101136.41;;;14.23;71.35
78407;BME280;67692;51.074;-1.790;2023-07-20T04:58:43;101139.84;;;14.23;71.57
78407;BME280;67692;51.074;-1.790;2023-07-20T05:01:10;101134.78;;;14.22;71.64
78407;BME280;67692;51.074;-1.790;2023-07-20T05:03:37;101126.94;;;14.22;71.83
78407;BME280;67692;51.074;-1.790;2023-07-20T05:06:03;101131.56;;;14.18;71.74
78407;BME280;67692;51.074;-1.790;2023-07-20T05:08:30;101135.81;;;14.08;72.12
78407;BME280;67692;51.074;-1.790;2023-07-20T05:10:56;101136.50;;;13.99;72.62
78407;BME280;67692;51.074;-1.790;2023-07-20T05:13:23;101135.59;;;14.11;72.06
78407;BME280;67692;51.074;-1.790;2023-07-20T05:15:52;101140.44;;;14.16;71.96
78407;BME280;67692;51.074;-1.790;2023-07-20T05:18:19;101143.03;;;14.16;72.11
78407;BME280;67692;51.074;-1.790;2023-07-20T05:20:46;101147.06;;;14.09;71.78
78407;BME280;67692;51.074;-1.790;2023-07-20T05:23:13;101142.31;;;14.14;72.09
78407;BME280;67692;51.074;-1.790;2023-07-20T05:25:39;101138.31;;;14.10;71.95
78407;BME280;67692;51.074;-1.790;2023-07-20T05:28:06;101146.13;;;14.10;71.90
78407;BME280;67692;51.074;-1.790;2023-07-20T05:30:33;101142.09;;;14.06;72.34
78407;BME280;67692;51.074;-1.790;2023-07-20T05:33:01;101143.75;;;14.07;72.35
78407;BME280;67692;51.074;-1.790;2023-07-20T05:35:27;101150.38;;;14.11;72.08
78407;BME280;67692;51.074;-1.790;2023-07-20T05:37:54;101144.47;;;14.20;72.43
78407;BME280;67692;51.074;-1.790;2023-07-20T05:40:20;101143.53;;;14.32;70.22
78407;BME280;67692;51.074;-1.790;2023-07-20T05:42:47;101142.81;;;14.41;70.29
78407;BME280;67692;51.074;-1.790;2023-07-20T05:45:17;101143.28;;;14.69;69.18
78407;BME280;67692;51.074;-1.790;2023-07-20T05:47:44;101141.97;;;14.74;68.94
78407;BME280;67692;51.074;-1.790;2023-07-20T05:50:12;101147.66;;;14.68;68.86
78407;BME280;67692;51.074;-1.790;2023-07-20T05:52:39;101144.47;;;14.76;69.06
78407;BME280;67692;51.074;-1.790;2023-07-20T05:55:06;101144.34;;;14.77;68.79
78407;BME280;67692;51.074;-1.790;2023-07-20T05:57:33;101134.75;;;14.78;68.30
78407;BME280;67692;51.074;-1.790;2023-07-20T06:00:00;101143.63;;;14.75;68.44
78407;BME280;67692;51.074;-1.790;2023-07-20T06:02:28;101143.03;;;14.72;68.73
78407;BME280;67692;51.074;-1.790;2023-07-20T06:04:55;101143.97;;;14.82;68.86
78407;BME280;67692;51.074;-1.790;2023-07-20T06:07:23;101148.13;;;14.84;68.76
78407;BME280;67692;51.074;-1.790;2023-07-20T06:09:50;101150.81;;;14.94;68.63
78407;BME280;67692;51.074;-1.790;2023-07-20T06:12:16;101138.81;;;15.03;68.12
78407;BME280;67692;51.074;-1.790;2023-07-20T06:14:43;101142.06;;;14.95;68.29
78407;BME280;67692;51.074;-1.790;2023-07-20T06:17:09;101140.03;;;14.87;68.33
78407;BME280;67692;51.074;-1.790;2023-07-20T06:19:36;101137.16;;;15.02;68.52
78407;BME280;67692;51.074;-1.790;2023-07-20T06:22:03;101138.66;;;15.15;68.29
78407;BME280;67692;51.074;-1.790;2023-07-20T06:24:31;101145.59;;;15.05;67.98
78407;BME280;67692;51.074;-1.790;2023-07-20T06:26:57;101146.31;;;14.96;68.70
78407;BME280;67692;51.074;-1.790;2023-07-20T06:29:24;101143.00;;;14.94;69.01
78407;BME280;67692;51.074;-1.790;2023-07-20T06:31:51;101140.59;;;15.02;68.76
78407;BME280;67692;51.074;-1.790;2023-07-20T06:34:18;101137.00;;;15.14;68.66
78407;BME280;67692;51.074;-1.790;2023-07-20T06:36:45;101141.75;;;15.21;68.45
78407;BME280;67692;51.074;-1.790;2023-07-20T06:39:11;101145.03;;;15.23;68.44
78407;BME280;67692;51.074;-1.790;2023-07-20T06:41:40;101138.41;;;15.18;68.87
78407;BME280;67692;51.074;-1.790;2023-07-20T06:44:07;101145.31;;;15.20;68.42
78407;BME280;67692;51.074;-1.790;2023-07-20T06:46:34;101137.66;;;15.28;68.17
78407;BME280;67692;51.074;-1.790;2023-07-20T06:49:00;101145.22;;;15.31;68.42
78407;BME280;67692;51.074;-1.790;2023-07-20T06:51:27;101148.22;;;15.26;67.94
78407;BME280;67692;51.074;-1.790;2023-07-20T06:53:53;101142.19;;;15.26;68.13
78407;BME280;67692;51.074;-1.790;2023-07-20T06:56:20;101146.44;;;15.27;68.20
78407;BME280;67692;51.074;-1.790;2023-07-20T06:58:48;101141.47;;;15.24;68.12
78407;BME280;67692;51.074;-1.790;2023-07-20T07:01:14;101142.41;;;15.34;68.25
78407;BME280;67692;51.074;-1.790;2023-07-20T07:03:42;101142.84;;;15.39;68.11
78407;BME280;67692;51.074;-1.790;2023-07-20T07:06:09;101145.44;;;15.39;67.75
78407;BME280;67692;51.074;-1.790;2023-07-20T07:08:36;101139.34;;;15.50;67.75
78407;BME280;67692;51.074;-1.790;2023-07-20T07:11:02;101139.53;;;15.58;67.38
78407;BME280;67692;51.074;-1.790;2023-07-20T07:13:29;101144.44;;;15.62;67.40
78407;BME280;67692;51.074;-1.790;2023-07-20T07:15:57;101138.16;;;15.74;66.87
78407;BME280;67692;51.074;-1.790;2023-07-20T07:18:24;101134.22;;;15.80;66.82
78407;BME280;67692;51.074;-1.790;2023-07-20T07:20:52;101139.38;;;15.91;66.30
78407;BME280;67692;51.074;-1.790;2023-07-20T07:23:19;101142.84;;;16.01;65.91
78407;BME280;67692;51.074;-1.790;2023-07-20T07:25:46;101137.22;;;15.96;64.94
78407;BME280;67692;51.074;-1.790;2023-07-20T07:28:13;101140.38;;;16.00;64.84
78407;BME280;67692;51.074;-1.790;2023-07-20T07:30:39;101139.16;;;16.04;64.22
78407;BME280;67692;51.074;-1.790;2023-07-20T07:33:07;101139.16;;;16.04;64.30
78407;BME280;67692;51.074;-1.790;2023-07-20T07:35:35;101143.69;;;16.02;63.89
78407;BME280;67692;51.074;-1.790;2023-07-20T07:38:02;101134.31;;;15.99;64.38
78407;BME280;67692;51.074;-1.790;2023-07-20T07:40:28;101139.88;;;16.06;64.05
78407;BME280;67692;51.074;-1.790;2023-07-20T07:42:55;101136.88;;;16.11;63.84
78407;BME280;67692;51.074;-1.790;2023-07-20T07:45:21;101135.50;;;16.16;63.72
78407;BME280;67692;51.074;-1.790;2023-07-20T07:47:48;101138.56;;;16.21;63.53
78407;BME280;67692;51.074;-1.790;2023-07-20T07:50:16;101137.59;;;16.22;64.01
78407;BME280;67692;51.074;-1.790;2023-07-20T07:52:43;101133.59;;;16.18;63.88
78407;BME280;67692;51.074;-1.790;2023-07-20T07:55:09;101136.47;;;16.15;63.79
78407;BME280;67692;51.074;-1.790;2023-07-20T07:57:36;101136.78;;;16.22;63.90
78407;BME280;67692;51.074;-1.790;2023-07-20T08:00:03;101127.31;;;16.30;63.45
78407;BME280;67692;51.074;-1.790;2023-07-20T08:02:31;101131.75;;;16.40;63.94
78407;BME280;67692;51.074;-1.790;2023-07-20T08:04:58;101129.16;;;16.40;63.07
78407;BME280;67692;51.074;-1.790;2023-07-20T08:07:27;101130.66;;;16.42;63.44
78407;BME280;67692;51.074;-1.790;2023-07-20T08:09:54;101121.22;;;16.51;63.44
78407;BME280;67692;51.074;-1.790;2023-07-20T08:12:20;101126.44;;;16.60;63.97
78407;BME280;67692;51.074;-1.790;2023-07-20T08:14:48;101118.94;;;16.67;63.68
78407;BME280;67692;51.074;-1.790;2023-07-20T08:17:14;101124.16;;;16.77;63.34
78407;BME280;67692;51.074;-1.790;2023-07-20T08:19:41;101120.75;;;16.86;63.26
78407;BME280;67692;51.074;-1.790;2023-07-20T08:22:07;101117.84;;;16.89;62.75
78407;BME280;67692;51.074;-1.790;2023-07-20T08:24:39;101116.50;;;16.94;62.19
78407;BME280;67692;51.074;-1.790;2023-07-20T08:27:06;101117.03;;;16.98;62.31
78407;BME280;67692;51.074;-1.790;2023-07-20T08:29:33;101118.41;;;17.02;61.46
78407;BME280;67692;51.074;-1.790;2023-07-20T08:32:00;101114.00;;;17.03;61.72
78407;BME280;67692;51.074;-1.790;2023-07-20T08:34:27;101117.59;;;17.11;61.57
78407;BME280;67692;51.074;-1.790;2023-07-20T08:36:53;101120.19;;;17.21;60.91
78407;BME280;67692;51.074;-1.790;2023-07-20T08:39:20;101112.06;;;17.34;60.82
78407;BME280;67692;51.074;-1.790;2023-07-20T08:41:49;101115.13;;;17.39;60.96
78407;BME280;67692;51.074;-1.790;2023-07-20T08:44:17;101112.06;;;17.43;60.81
78407;BME280;67692;51.074;-1.790;2023-07-20T08:46:44;101116.34;;;17.44;60.31
78407;BME280;67692;51.074;-1.790;2023-07-20T08:49:11;101108.88;;;17.49;60.07
78407;BME280;67692;51.074;-1.790;2023-07-20T08:51:38;101116.47;;;17.52;59.75
78407;BME280;67692;51.074;-1.790;2023-07-20T08:54:06;101115.22;;;17.57;59.32
78407;BME280;67692;51.074;-1.790;2023-07-20T08:56:33;101106.25;;;17.59;57.69
78407;BME280;67692;51.074;-1.790;2023-07-20T08:59:02;101112.03;;;17.63;57.19
78407;BME280;67692;51.074;-1.790;2023-07-20T09:01:30;101118.25;;;17.71;57.41
78407;BME280;67692;51.074;-1.790;2023-07-20T09:03:57;101109.59;;;17.71;57.03
78407;BME280;67692;51.074;-1.790;2023-07-20T09:06:24;101106.97;;;17.71;57.25
78407;BME280;67692;51.074;-1.790;2023-07-20T09:08:51;101106.28;;;17.69;57.47
78407;BME280;67692;51.074;-1.790;2023-07-20T09:11:17;101106.38;;;17.77;57.36
78407;BME280;67692;51.074;-1.790;2023-07-20T09:13:44;101105.84;;;17.83;58.06
78407;BME280;67692;51.074;-1.790;2023-07-20T09:16:13;101104.19;;;17.82;58.34
78407;BME280;67692;51.074;-1.790;2023-07-20T09:18:41;101099.72;;;17.92;58.40
78407;BME280;67692;51.074;-1.790;2023-07-20T09:21:08;101104.69;;;17.95;58.72
78407;BME280;67692;51.074;-1.790;2023-07-20T09:23:35;101105.66;;;17.94;58.95
78407;BME280;67692;51.074;-1.790;2023-07-20T09:26:09;101102.47;;;18.00;57.23
78407;BME280;67692;51.074;-1.790;2023-07-20T09:28:41;101102.03;;;18.05;58.24
78407;BME280;67692;51.074;-1.790;2023-07-20T09:31:15;101098.16;;;18.09;55.21
78407;BME280;67692;51.074;-1.790;2023-07-20T09:33:42;101095.38;;;18.10;54.58
78407;BME280;67692;51.074;-1.790;2023-07-20T09:36:09;101087.22;;;18.13;54.95
78407;BME280;67692;51.074;-1.790;2023-07-20T09:38:36;101090.91;;;18.21;53.65
78407;BME280;67692;51.074;-1.790;2023-07-20T09:41:05;101095.19;;;18.22;52.89
78407;BME280;67692;51.074;-1.790;2023-07-20T09:43:32;101089.25;;;18.20;51.66
78407;BME280;67692;51.074;-1.790;2023-07-20T09:46:00;101094.75;;;18.26;51.72
78407;BME280;67692;51.074;-1.790;2023-07-20T09:48:29;101088.69;;;18.26;51.64
78407;BME280;67692;51.074;-1.790;2023-07-20T09:50:56;101080.91;;;18.34;51.77
78407;BME280;67692;51.074;-1.790;2023-07-20T09:53:25;101086.25;;;18.42;51.99
78407;BME280;67692;51.074;-1.790;2023-07-20T09:55:52;101083.59;;;18.52;52.63
78407;BME280;67692;51.074;-1.790;2023-07-20T09:58:19;101084.41;;;18.52;51.22
78407;BME280;67692;51.074;-1.790;2023-07-20T10:00:48;101075.84;;;18.50;51.86
78407;BME280;67692;51.074;-1.790;2023-07-20T10:03:19;101076.63;;;18.60;52.04
78407;BME280;67692;51.074;-1.790;2023-07-20T10:05:49;101083.00;;;18.58;52.67
78407;BME280;67692;51.074;-1.790;2023-07-20T10:08:20;101072.66;;;18.56;52.89
78407;BME280;67692;51.074;-1.790;2023-07-20T10:10:50;101081.59;;;18.63;52.59
78407;BME280;67692;51.074;-1.790;2023-07-20T10:13:18;101081.31;;;18.66;50.83
78407;BME280;67692;51.074;-1.790;2023-07-20T10:15:47;101077.13;;;18.73;50.86
78407;BME280;67692;51.074;-1.790;2023-07-20T10:18:21;101078.19;;;18.81;50.89
78407;BME280;67692;51.074;-1.790;2023-07-20T10:20:54;101068.50;;;18.81;51.10
78407;BME280;67692;51.074;-1.790;2023-07-20T10:23:21;101074.59;;;18.82;50.75
78407;BME280;67692;51.074;-1.790;2023-07-20T10:25:48;101073.59;;;18.83;50.38
78407;BME280;67692;51.074;-1.790;2023-07-20T10:28:16;101080.41;;;18.93;50.13
78407;BME280;67692;51.074;-1.790;2023-07-20T10:30:43;101070.69;;;18.86;49.28
78407;BME280;67692;51.074;-1.790;2023-07-20T10:33:11;101073.50;;;18.92;49.42
78407;BME280;67692;51.074;-1.790;2023-07-20T10:35:52;101071.56;;;19.12;49.15
78407;BME280;67692;51.074;-1.790;2023-07-20T10:38:19;101073.94;;;19.23;50.34
78407;BME280;67692;51.074;-1.790;2023-07-20T10:40:54;101071.38;;;19.31;49.70
78407;BME280;67692;51.074;-1.790;2023-07-20T10:43:21;101075.50;;;19.34;48.26
78407;BME280;67692;51.074;-1.790;2023-07-20T10:45:49;101069.09;;;19.37;48.78
78407;BME280;67692;51.074;-1.790;2023-07-20T10:48:17;101072.94;;;19.42;50.19
78407;BME280;67692;51.074;-1.790;2023-07-20T10:50:45;101069.09;;;19.37;47.76
78407;BME280;67692;51.074;-1.790;2023-07-20T10:53:15;101067.47;;;19.36;45.79
78407;BME280;67692;51.074;-1.790;2023-07-20T10:55:42;101068.13;;;19.38;46.54
78407;BME280;67692;51.074;-1.790;2023-07-20T10:58:12;101076.69;;;19.40;45.67
78407;BME280;67692;51.074;-1.790;2023-07-20T11:00:57;101058.59;;;19.37;45.54
78407;BME280;67692;51.074;-1.790;2023-07-20T11:03:30;101052.13;;;19.49;46.07
78407;BME280;67692;51.074;-1.790;2023-07-20T11:05:57;101052.88;;;19.59;46.15
78407;BME280;67692;51.074;-1.790;2023-07-20T11:08:41;101063.63;;;19.74;46.79
78407;BME280;67692;51.074;-1.790;2023-07-20T11:11:27;101053.28;;;19.72;45.75
78407;BME280;67692;51.074;-1.790;2023-07-20T11:13:57;101068.38;;;19.70;45.45
78407;BME280;67692;51.074;-1.790;2023-07-20T11:16:38;101052.78;;;19.69;45.93
78407;BME280;67692;51.074;-1.790;2023-07-20T11:19:06;101058.47;;;19.64;46.12
78407;BME280;67692;51.074;-1.790;2023-07-20T11:21:41;101053.38;;;19.63;45.74
78407;BME280;67692;51.074;-1.790;2023-07-20T11:24:09;101052.25;;;19.65;45.59
78407;BME280;67692;51.074;-1.790;2023-07-20T11:26:46;101050.41;;;19.83;46.44
78407;BME280;67692;51.074;-1.790;2023-07-20T11:29:13;101046.81;;;19.92;47.59
78407;BME280;67692;51.074;-1.790;2023-07-20T11:31:41;101046.53;;;20.04;44.86
78407;BME280;67692;51.074;-1.790;2023-07-20T11:34:10;101041.28;;;20.04;45.56
78407;BME280;67692;51.074;-1.790;2023-07-20T11:36:39;101040.94;;;20.07;43.44
78407;BME280;67692;51.074;-1.790;2023-07-20T11:39:06;101030.09;;;20.10;43.03
78407;BME280;67692;51.074;-1.790;2023-07-20T11:41:36;101036.88;;;20.20;44.12
78407;BME280;67692;51.074;-1.790;2023-07-20T11:44:03;101039.72;;;20.27;44.56
78407;BME280;67692;51.074;-1.790;2023-07-20T11:46:31;101047.63;;;20.35;44.51
78407;BME280;67692;51.074;-1.790;2023-07-20T11:48:59;101041.03;;;20.39;44.59
78407;BME280;67692;51.074;-1.790;2023-07-20T11:51:27;101037.97;;;20.44;43.45
78407;BME280;67692;51.074;-1.790;2023-07-20T11:53:54;101039.28;;;20.48;43.14
78407;BME280;67692;51.074;-1.790;2023-07-20T11:56:22;101037.16;;;20.52;42.57
78407;BME280;67692;51.074;-1.790;2023-07-20T11:58:50;101035.22;;;20.62;42.16
78407;BME280;67692;51.074;-1.790;2023-07-20T12:01:20;101019.56;;;20.68;42.15
78407;BME280;67692;51.074;-1.790;2023-07-20T12:03:48;101017.16;;;20.83;41.84
78407;BME280;67692;51.074;-1.790;2023-07-20T12:06:15;101027.31;;;20.94;43.00
78407;BME280;67692;51.074;-1.790;2023-07-20T12:08:43;101029.31;;;21.00;42.71
78407;BME280;67692;51.074;-1.790;2023-07-20T12:11:09;101029.13;;;20.94;42.90
78407;BME280;67692;51.074;-1.790;2023-07-20T12:13:42;101023.38;;;20.90;43.12
78407;BME280;67692;51.074;-1.790;2023-07-20T12:16:12;101024.84;;;20.76;43.15
78407;BME280;67692;51.074;-1.790;2023-07-20T12:18:39;101014.00;;;20.71;44.11
78407;BME280;67692;51.074;-1.790;2023-07-20T12:21:06;101008.22;;;20.68;42.90
78407;BME280;67692;51.074;-1.790;2023-07-20T12:23:38;101005.94;;;20.57;43.77
78407;BME280;67692;51.074;-1.790;2023-07-20T12:26:06;101001.41;;;20.33;43.77
78407;BME280;67692;51.074;-1.790;2023-07-20T12:28:33;100998.69;;;20.42;43.78
78407;BME280;67692;51.074;-1.790;2023-07-20T12:30:59;101000.63;;;20.40;43.69
78407;BME280;67692;51.074;-1.790;2023-07-20T12:33:27;100996.72;;;20.44;42.85
78407;BME280;67692;51.074;-1.790;2023-07-20T12:35:54;100990.94;;;20.49;43.96
78407;BME280;67692;51.074;-1.790;2023-07-20T12:38:23;100987.84;;;20.62;43.54
78407;BME280;67692;51.074;-1.790;2023-07-20T12:40:50;100985.84;;;20.80;42.99
78407;BME280;67692;51.074;-1.790;2023-07-20T12:43:17;100982.91;;;20.91;43.32